Terminal Aerodrome Forecast
Issued by NWS Twin Cities, MN

Home | Current Version | Previous Version | Text Only | Print | Product List | Glossary On
Versions: 1 2 3 4 5 6 7 8 9 10 11 12 13 14 15 16 17 18 19 20 21 22 23 24 25 26 27 28
000
FTUS43 KMPX 050520
TAFMSP
TAF
KMSP 050520Z 0506/0612 07006KT P6SM BKN250
     FM051300 09010KT P6SM BKN150
     FM051600 11013G20KT P6SM SCT050 BKN120
     FM060100 11013KT P6SM BKN045 OVC100=

USA.gov is the U.S. government's official web portal to all federal, state and local government web resources and services.